sensor_id;sensor_type;location;lat;lon;timestamp;pressure;altitude;pressure_sealevel;temperature;humidity
54407;BME280;40313;50.308;30.374;2022-09-03T00:01:18;100197.63;;;16.70;79.79
54407;BME280;40313;50.308;30.374;2022-09-03T00:03:50;100194.78;;;16.73;79.89
54407;BME280;40313;50.308;30.374;2022-09-03T00:06:22;100184.25;;;16.73;80.30
54407;BME280;40313;50.308;30.374;2022-09-03T00:08:56;100186.88;;;16.73;80.88
54407;BME280;40313;50.308;30.374;2022-09-03T00:11:26;100193.69;;;16.76;78.87
54407;BME280;40313;50.308;30.374;2022-09-03T00:13:59;100199.72;;;16.78;81.00
54407;BME280;40313;50.308;30.374;2022-09-03T00:16:37;100191.34;;;16.84;81.81
54407;BME280;40313;50.308;30.374;2022-09-03T00:19:06;100189.56;;;16.85;79.87
54407;BME280;40313;50.308;30.374;2022-09-03T00:21:38;100191.34;;;16.84;78.13
54407;BME280;40313;50.308;30.374;2022-09-03T00:24:10;100198.66;;;16.81;77.31
54407;BME280;40313;50.308;30.374;2022-09-03T00:26:43;100194.34;;;16.80;78.26
54407;BME280;40313;50.308;30.374;2022-09-03T00:29:14;100188.00;;;16.82;80.62
54407;BME280;40313;50.308;30.374;2022-09-03T00:31:47;100197.38;;;16.86;81.78
54407;BME280;40313;50.308;30.374;2022-09-03T00:34:20;100193.75;;;16.87;82.08
54407;BME280;40313;50.308;30.374;2022-09-03T00:36:49;100180.09;;;16.82;82.23
54407;BME280;40313;50.308;30.374;2022-09-03T00:39:19;100190.53;;;16.84;78.87
54407;BME280;40313;50.308;30.374;2022-09-03T00:41:56;100193.03;;;16.85;77.07
54407;BME280;40313;50.308;30.374;2022-09-03T00:44:41;100198.19;;;16.87;76.92
54407;BME280;40313;50.308;30.374;2022-09-03T00:47:18;100203.59;;;16.85;81.51
54407;BME280;40313;50.308;30.374;2022-09-03T00:49:57;100190.53;;;16.84;82.33
54407;BME280;40313;50.308;30.374;2022-09-03T00:52:37;100200.41;;;16.93;83.08
54407;BME280;40313;50.308;30.374;2022-09-03T00:55:15;100192.00;;;16.88;83.46
54407;BME280;40313;50.308;30.374;2022-09-03T00:57:55;100207.47;;;16.92;81.19
54407;BME280;40313;50.308;30.374;2022-09-03T01:00:24;100200.31;;;16.82;77.99
54407;BME280;40313;50.308;30.374;2022-09-03T01:03:04;100204.00;;;16.92;77.85
54407;BME280;40313;50.308;30.374;2022-09-03T01:05:52;100195.91;;;16.82;76.10
54407;BME280;40313;50.308;30.374;2022-09-03T01:08:32;100200.66;;;16.77;76.36
54407;BME280;40313;50.308;30.374;2022-09-03T01:11:14;100195.16;;;16.80;76.31
54407;BME280;40313;50.308;30.374;2022-09-03T01:13:51;100191.94;;;16.76;76.03
54407;BME280;40313;50.308;30.374;2022-09-03T01:16:27;100192.66;;;16.79;76.25
54407;BME280;40313;50.308;30.374;2022-09-03T01:19:04;100191.94;;;16.76;76.13
54407;BME280;40313;50.308;30.374;2022-09-03T01:22:00;100199.03;;;16.87;75.95
54407;BME280;40313;50.308;30.374;2022-09-03T01:24:46;100192.09;;;16.86;76.12
54407;BME280;40313;50.308;30.374;2022-09-03T01:27:31;100192.09;;;16.86;76.46
54407;BME280;40313;50.308;30.374;2022-09-03T01:30:08;100197.16;;;16.89;77.59
54407;BME280;40313;50.308;30.374;2022-09-03T01:32:44;100196.81;;;16.94;78.85
54407;BME280;40313;50.308;30.374;2022-09-03T01:35:22;100193.13;;;16.97;77.84
54407;BME280;40313;50.308;30.374;2022-09-03T01:38:00;100195.41;;;17.01;78.07
54407;BME280;40313;50.308;30.374;2022-09-03T01:40:35;100199.00;;;17.00;77.07
54407;BME280;40313;50.308;30.374;2022-09-03T01:43:29;100192.31;;;17.07;78.01
54407;BME280;40313;50.308;30.374;2022-09-03T01:46:07;100205.34;;;16.98;75.94
54407;BME280;40313;50.308;30.374;2022-09-03T01:48:44;100195.63;;;16.98;75.62
54407;BME280;40313;50.308;30.374;2022-09-03T01:51:18;100198.16;;;17.00;77.53
54407;BME280;40313;50.308;30.374;2022-09-03T01:57:16;100198.31;;;17.09;78.46
54407;BME280;40313;50.308;30.374;2022-09-03T01:59:52;100201.31;;;17.05;77.26
54407;BME280;40313;50.308;30.374;2022-09-03T02:02:26;100196.03;;;17.05;76.57
54407;BME280;40313;50.308;30.374;2022-09-03T02:05:01;100195.56;;;17.11;76.04
54407;BME280;40313;50.308;30.374;2022-09-03T02:07:32;100192.66;;;17.03;75.73
54407;BME280;40313;50.308;30.374;2022-09-03T02:10:00;100193.00;;;16.98;75.30
54407;BME280;40313;50.308;30.374;2022-09-03T02:12:29;100196.59;;;16.97;75.52
54407;BME280;40313;50.308;30.374;2022-09-03T02:14:58;100201.16;;;16.95;75.47
54407;BME280;40313;50.308;30.374;2022-09-03T02:17:27;100195.88;;;16.95;75.91
54407;BME280;40313;50.308;30.374;2022-09-03T02:19:55;100196.81;;;16.94;76.86
54407;BME280;40313;50.308;30.374;2022-09-03T02:22:23;100196.81;;;16.94;76.61
54407;BME280;40313;50.308;30.374;2022-09-03T02:24:51;100200.16;;;16.96;77.03
54407;BME280;40313;50.308;30.374;2022-09-03T02:27:19;100197.53;;;16.96;76.94
54407;BME280;40313;50.308;30.374;2022-09-03T02:29:47;100193.25;;;16.95;77.36
54407;BME280;40313;50.308;30.374;2022-09-03T02:32:15;100200.16;;;16.96;77.46
54407;BME280;40313;50.308;30.374;2022-09-03T02:34:43;100196.47;;;16.99;78.25
54407;BME280;40313;50.308;30.374;2022-09-03T02:37:13;100191.44;;;16.96;78.22
54407;BME280;40313;50.308;30.374;2022-09-03T02:39:40;100198.50;;;16.95;76.91
54407;BME280;40313;50.308;30.374;2022-09-03T02:42:09;100200.91;;;16.98;77.60
54407;BME280;40313;50.308;30.374;2022-09-03T02:44:41;100199.84;;;17.01;78.11
54407;BME280;40313;50.308;30.374;2022-09-03T02:47:10;100204.25;;;17.00;77.73
54407;BME280;40313;50.308;30.374;2022-09-03T02:49:36;100207.88;;;16.99;77.91
54407;BME280;40313;50.308;30.374;2022-09-03T02:52:07;100205.00;;;17.02;77.91
54407;BME280;40313;50.308;30.374;2022-09-03T02:54:37;100207.63;;;17.02;78.45
54407;BME280;40313;50.308;30.374;2022-09-03T02:57:06;100203.31;;;17.01;77.43
54407;BME280;40313;50.308;30.374;2022-09-03T02:59:34;100204.78;;;17.05;77.72
54407;BME280;40313;50.308;30.374;2022-09-03T03:02:01;100196.63;;;17.08;76.57
54407;BME280;40313;50.308;30.374;2022-09-03T03:04:29;100200.22;;;17.07;76.18
54407;BME280;40313;50.308;30.374;2022-09-03T03:06:55;100204.06;;;17.03;76.75
54407;BME280;40313;50.308;30.374;2022-09-03T03:09:23;100203.81;;;17.06;76.94
54407;BME280;40313;50.308;30.374;2022-09-03T03:11:51;100210.75;;;17.07;76.72
54407;BME280;40313;50.308;30.374;2022-09-03T03:14:20;100204.66;;;17.07;77.10
54407;BME280;40313;50.308;30.374;2022-09-03T03:16:46;100210.75;;;17.07;76.92
54407;BME280;40313;50.308;30.374;2022-09-03T03:19:13;100217.00;;;17.06;77.46
54407;BME280;40313;50.308;30.374;2022-09-03T03:21:40;100228.09;;;16.99;79.74
54407;BME280;40313;50.308;30.374;2022-09-03T03:24:09;100248.13;;;17.01;79.11
54407;BME280;40313;50.308;30.374;2022-09-03T03:26:38;100239.94;;;16.93;79.12
54407;BME280;40313;50.308;30.374;2022-09-03T03:29:04;100247.13;;;16.91;78.36
54407;BME280;40313;50.308;30.374;2022-09-03T03:31:31;100250.47;;;16.93;78.47
54407;BME280;40313;50.308;30.374;2022-09-03T03:33:59;100246.19;;;16.92;77.99
54407;BME280;40313;50.308;30.374;2022-09-03T03:36:28;100253.63;;;16.98;77.99
54407;BME280;40313;50.308;30.374;2022-09-03T03:38:56;100252.34;;;17.04;77.35
54407;BME280;40313;50.308;30.374;2022-09-03T03:41:26;100250.22;;;17.09;76.70
54407;BME280;40313;50.308;30.374;2022-09-03T03:43:57;100254.16;;;17.15;76.71
54407;BME280;40313;50.308;30.374;2022-09-03T03:46:28;100254.66;;;17.20;76.75
54407;BME280;40313;50.308;30.374;2022-09-03T03:48:55;100254.44;;;17.23;77.07
54407;BME280;40313;50.308;30.374;2022-09-03T03:51:21;100244.75;;;17.23;77.60
54407;BME280;40313;50.308;30.374;2022-09-03T03:53:48;100249.22;;;17.34;78.52
54407;BME280;40313;50.308;30.374;2022-09-03T03:56:14;100247.78;;;17.41;78.13
54407;BME280;40313;50.308;30.374;2022-09-03T03:58:41;100256.91;;;17.49;77.78
54407;BME280;40313;50.308;30.374;2022-09-03T04:01:12;100245.56;;;17.59;77.50
54407;BME280;40313;50.308;30.374;2022-09-03T04:03:40;100244.81;;;17.57;76.38
54407;BME280;40313;50.308;30.374;2022-09-03T04:06:08;100252.88;;;17.67;76.25
54407;BME280;40313;50.308;30.374;2022-09-03T04:08:37;100244.97;;;17.67;75.78
54407;BME280;40313;50.308;30.374;2022-09-03T04:11:05;100250.50;;;17.75;75.03
54407;BME280;40313;50.308;30.374;2022-09-03T04:13:33;100253.16;;;17.75;74.81
54407;BME280;40313;50.308;30.374;2022-09-03T04:16:01;100256.41;;;17.79;75.24
54407;BME280;40313;50.308;30.374;2022-09-03T04:18:30;100247.50;;;17.80;75.95
54407;BME280;40313;50.308;30.374;2022-09-03T04:20:59;100250.94;;;17.93;75.99
54407;BME280;40313;50.308;30.374;2022-09-03T04:23:28;100253.34;;;18.08;75.72
54407;BME280;40313;50.308;30.374;2022-09-03T04:25:55;100252.59;;;18.17;74.61
54407;BME280;40313;50.308;30.374;2022-09-03T04:28:22;100247.19;;;18.19;74.71
54407;BME280;40313;50.308;30.374;2022-09-03T04:30:48;100244.56;;;18.19;74.02
54407;BME280;40313;50.308;30.374;2022-09-03T04:33:15;100245.88;;;18.24;73.98
54407;BME280;40313;50.308;30.374;2022-09-03T04:35:43;100254.66;;;18.25;74.20
54407;BME280;40313;50.308;30.374;2022-09-03T04:38:10;100249.00;;;18.18;74.05
54407;BME280;40313;50.308;30.374;2022-09-03T04:40:37;100254.88;;;18.22;74.80
54407;BME280;40313;50.308;30.374;2022-09-03T04:43:04;100254.78;;;18.23;75.47
54407;BME280;40313;50.308;30.374;2022-09-03T04:45:30;100255.97;;;18.30;75.24
54407;BME280;40313;50.308;30.374;2022-09-03T04:47:58;100251.16;;;18.36;75.65
54407;BME280;40313;50.308;30.374;2022-09-03T04:50:25;100250.56;;;18.43;75.15
54407;BME280;40313;50.308;30.374;2022-09-03T04:52:54;100251.50;;;18.54;74.91
54407;BME280;40313;50.308;30.374;2022-09-03T04:55:22;100253.75;;;18.58;75.05
54407;BME280;40313;50.308;30.374;2022-09-03T04:57:49;100251.00;;;18.60;75.18
54407;BME280;40313;50.308;30.374;2022-09-03T05:00:16;100255.06;;;18.75;75.32
54407;BME280;40313;50.308;30.374;2022-09-03T05:02:44;100237.84;;;18.81;74.00
54407;BME280;40313;50.308;30.374;2022-09-03T05:05:11;100251.44;;;18.88;73.84
54407;BME280;40313;50.308;30.374;2022-09-03T05:07:38;100242.75;;;18.86;72.36
54407;BME280;40313;50.308;30.374;2022-09-03T05:10:08;100235.34;;;18.91;72.61
54407;BME280;40313;50.308;30.374;2022-09-03T05:12:37;100240.94;;;18.97;73.01
54407;BME280;40313;50.308;30.374;2022-09-03T05:15:05;100235.72;;;19.07;72.20
54407;BME280;40313;50.308;30.374;2022-09-03T05:17:32;100239.56;;;19.14;71.76
54407;BME280;40313;50.308;30.374;2022-09-03T05:19:58;100238.41;;;19.28;70.48
54407;BME280;40313;50.308;30.374;2022-09-03T05:22:25;100245.47;;;19.39;70.17
54407;BME280;40313;50.308;30.374;2022-09-03T05:24:51;100244.16;;;19.55;69.64
54407;BME280;40313;50.308;30.374;2022-09-03T05:27:21;100237.28;;;19.73;69.87
54407;BME280;40313;50.308;30.374;2022-09-03T05:29:48;100239.34;;;19.81;68.67
54407;BME280;40313;50.308;30.374;2022-09-03T05:32:15;100242.72;;;19.93;67.75
54407;BME280;40313;50.308;30.374;2022-09-03T05:34:41;100240.53;;;19.98;67.93
54407;BME280;40313;50.308;30.374;2022-09-03T05:37:08;100234.16;;;20.10;67.38
54407;BME280;40313;50.308;30.374;2022-09-03T05:39:35;100238.66;;;20.19;66.55
54407;BME280;40313;50.308;30.374;2022-09-03T05:42:02;100245.38;;;20.24;66.35
54407;BME280;40313;50.308;30.374;2022-09-03T05:44:30;100250.69;;;20.24;65.83
54407;BME280;40313;50.308;30.374;2022-09-03T05:46:57;100247.63;;;20.28;66.46
54407;BME280;40313;50.308;30.374;2022-09-03T05:49:24;100251.00;;;20.40;66.52
54407;BME280;40313;50.308;30.374;2022-09-03T05:51:51;100247.81;;;20.56;66.20
54407;BME280;40313;50.308;30.374;2022-09-03T05:54:17;100242.81;;;20.63;65.63
54407;BME280;40313;50.308;30.374;2022-09-03T05:56:44;100242.31;;;20.88;65.68
54407;BME280;40313;50.308;30.374;2022-09-03T05:59:10;100241.63;;;21.06;64.44
54407;BME280;40313;50.308;30.374;2022-09-03T06:01:41;100235.50;;;21.15;64.16
54407;BME280;40313;50.308;30.374;2022-09-03T06:04:09;100227.25;;;21.18;63.33
54407;BME280;40313;50.308;30.374;2022-09-03T06:06:37;100245.81;;;21.38;63.99
54407;BME280;40313;50.308;30.374;2022-09-03T06:09:07;100240.47;;;21.57;63.93
54407;BME280;40313;50.308;30.374;2022-09-03T06:11:36;100229.56;;;21.70;63.74
54407;BME280;40313;50.308;30.374;2022-09-03T06:14:04;100229.00;;;21.77;63.33
54407;BME280;40313;50.308;30.374;2022-09-03T06:16:33;100230.66;;;21.78;62.77
54407;BME280;40313;50.308;30.374;2022-09-03T06:19:02;100246.09;;;22.02;62.18
54407;BME280;40313;50.308;30.374;2022-09-03T06:21:34;100236.28;;;22.12;61.93
54407;BME280;40313;50.308;30.374;2022-09-03T06:24:01;100236.91;;;22.24;61.36
54407;BME280;40313;50.308;30.374;2022-09-03T06:26:28;100244.19;;;22.22;60.75
54407;BME280;40313;50.308;30.374;2022-09-03T06:28:55;100236.53;;;22.09;60.95
54407;BME280;40313;50.308;30.374;2022-09-03T06:31:23;100227.41;;;21.94;61.52
54407;BME280;40313;50.308;30.374;2022-09-03T06:33:50;100234.69;;;21.82;62.02
54407;BME280;40313;50.308;30.374;2022-09-03T06:36:20;100233.94;;;21.99;61.82
54407;BME280;40313;50.308;30.374;2022-09-03T06:38:50;100237.72;;;22.24;62.11
54407;BME280;40313;50.308;30.374;2022-09-03T06:41:19;100232.50;;;22.42;60.82
54407;BME280;40313;50.308;30.374;2022-09-03T06:43:50;100241.91;;;22.83;60.84
54407;BME280;40313;50.308;30.374;2022-09-03T06:46:19;100245.16;;;22.94;59.78
54407;BME280;40313;50.308;30.374;2022-09-03T06:48:47;100238.78;;;22.87;59.08
54407;BME280;40313;50.308;30.374;2022-09-03T06:51:17;100232.25;;;23.00;59.56
54407;BME280;40313;50.308;30.374;2022-09-03T06:53:46;100230.44;;;23.18;59.10
54407;BME280;40313;50.308;30.374;2022-09-03T06:56:15;100239.50;;;23.52;58.11
54407;BME280;40313;50.308;30.374;2022-09-03T06:58:43;100230.19;;;23.82;56.90
54407;BME280;40313;50.308;30.374;2022-09-03T07:01:12;100236.94;;;24.21;55.93
54407;BME280;40313;50.308;30.374;2022-09-03T07:03:41;100241.97;;;24.40;55.40
54407;BME280;40313;50.308;30.374;2022-09-03T07:06:09;100234.75;;;24.24;54.51
54407;BME280;40313;50.308;30.374;2022-09-03T07:08:37;100241.63;;;24.01;54.20
54407;BME280;40313;50.308;30.374;2022-09-03T07:11:07;100237.47;;;23.72;53.93
54407;BME280;40313;50.308;30.374;2022-09-03T07:13:34;100237.88;;;23.59;54.32
54407;BME280;40313;50.308;30.374;2022-09-03T07:16:03;100233.03;;;23.54;54.83
54407;BME280;40313;50.308;30.374;2022-09-03T07:18:30;100235.38;;;23.57;55.55
54407;BME280;40313;50.308;30.374;2022-09-03T07:20:58;100234.22;;;23.60;55.48
54407;BME280;40313;50.308;30.374;2022-09-03T07:23:25;100239.25;;;23.63;55.80
54407;BME280;40313;50.308;30.374;2022-09-03T07:25:53;100252.09;;;23.68;55.50
54407;BME280;40313;50.308;30.374;2022-09-03T07:28:22;100249.47;;;23.76;55.34
54407;BME280;40313;50.308;30.374;2022-09-03T07:30:49;100243.91;;;23.87;53.78
54407;BME280;40313;50.308;30.374;2022-09-03T07:33:16;100252.13;;;23.94;53.58
54407;BME280;40313;50.308;30.374;2022-09-03T07:35:44;100244.31;;;24.01;53.31
54407;BME280;40313;50.308;30.374;2022-09-03T07:38:10;100248.69;;;24.10;52.29
54407;BME280;40313;50.308;30.374;2022-09-03T07:40:37;100251.75;;;24.23;52.17
54407;BME280;40313;50.308;30.374;2022-09-03T07:43:04;100258.13;;;24.39;51.67
54407;BME280;40313;50.308;30.374;2022-09-03T07:45:32;100240.94;;;24.76;51.24
54407;BME280;40313;50.308;30.374;2022-09-03T07:47:59;100244.63;;;25.16;50.68
54407;BME280;40313;50.308;30.374;2022-09-03T07:50:26;100255.31;;;25.41;49.68
54407;BME280;40313;50.308;30.374;2022-09-03T07:52:55;100253.50;;;25.49;49.97
54407;BME280;40313;50.308;30.374;2022-09-03T07:55:23;100253.47;;;25.66;48.57
54407;BME280;40313;50.308;30.374;2022-09-03T07:57:54;100253.28;;;25.76;48.95
54407;BME280;40313;50.308;30.374;2022-09-03T08:00:21;100237.88;;;25.86;48.16
54407;BME280;40313;50.308;30.374;2022-09-03T08:02:50;100247.75;;;25.94;47.56
54407;BME280;40313;50.308;30.374;2022-09-03T08:05:17;100254.78;;;25.86;46.82
54407;BME280;40313;50.308;30.374;2022-09-03T08:07:44;100249.22;;;25.96;47.66
54407;BME280;40313;50.308;30.374;2022-09-03T08:10:11;100255.16;;;26.23;47.05
54407;BME280;40313;50.308;30.374;2022-09-03T08:12:38;100245.66;;;26.52;46.79
54407;BME280;40313;50.308;30.374;2022-09-03T08:15:05;100240.25;;;26.68;45.96
54407;BME280;40313;50.308;30.374;2022-09-03T08:17:32;100241.97;;;26.84;45.19
54407;BME280;40313;50.308;30.374;2022-09-03T08:20:01;100236.25;;;27.11;44.89
54407;BME280;40313;50.308;30.374;2022-09-03T08:22:28;100241.03;;;26.77;43.58
54407;BME280;40313;50.308;30.374;2022-09-03T08:24:55;100240.13;;;26.53;43.97
54407;BME280;40313;50.308;30.374;2022-09-03T08:27:21;100242.41;;;26.33;44.42
54407;BME280;40313;50.308;30.374;2022-09-03T08:29:49;100245.09;;;26.33;45.09
54407;BME280;40313;50.308;30.374;2022-09-03T08:32:16;100234.75;;;26.30;43.46
54407;BME280;40313;50.308;30.374;2022-09-03T08:34:42;100237.56;;;26.37;43.84
54407;BME280;40313;50.308;30.374;2022-09-03T08:37:10;100235.59;;;26.31;43.54
54407;BME280;40313;50.308;30.374;2022-09-03T08:39:37;100227.72;;;26.29;43.50
54407;BME280;40313;50.308;30.374;2022-09-03T08:42:24;100219.44;;;26.47;42.21
54407;BME280;40313;50.308;30.374;2022-09-03T08:44:54;100222.34;;;26.69;43.38
54407;BME280;40313;50.308;30.374;2022-09-03T08:47:26;100224.84;;;26.70;42.39
54407;BME280;40313;50.308;30.374;2022-09-03T08:49:56;100215.44;;;26.75;42.61
54407;BME280;40313;50.308;30.374;2022-09-03T08:52:32;100202.16;;;27.04;41.93
54407;BME280;40313;50.308;30.374;2022-09-03T08:55:15;100204.28;;;27.32;40.95
54407;BME280;40313;50.308;30.374;2022-09-03T08:57:46;100206.00;;;27.63;41.38
54407;BME280;40313;50.308;30.374;2022-09-03T09:00:14;100209.59;;;27.85;40.39
54407;BME280;40313;50.308;30.374;2022-09-03T09:02:51;100205.34;;;28.06;39.64
54407;BME280;40313;50.308;30.374;2022-09-03T09:05:23;100201.91;;;28.27;39.78
54407;BME280;40313;50.308;30.374;2022-09-03T09:07:59;100212.63;;;28.27;37.66
54407;BME280;40313;50.308;30.374;2022-09-03T09:10:34;100200.50;;;28.31;39.56
54407;BME280;40313;50.308;30.374;2022-09-03T09:13:08;100202.38;;;28.16;38.08
54407;BME280;40313;50.308;30.374;2022-09-03T09:15:47;100211.81;;;28.12;38.63
54407;BME280;40313;50.308;30.374;2022-09-03T09:18:22;100210.97;;;27.96;39.21
54407;BME280;40313;50.308;30.374;2022-09-03T09:20:55;100205.34;;;27.76;38.83
54407;BME280;40313;50.308;30.374;2022-09-03T09:23:27;100206.09;;;27.70;38.29
54407;BME280;40313;50.308;30.374;2022-09-03T09:25:58;100207.19;;;27.46;39.68
54407;BME280;40313;50.308;30.374;2022-09-03T09:28:30;100205.28;;;27.31;39.55
54407;BME280;40313;50.308;30.374;2022-09-03T09:31:00;100204.56;;;27.37;40.39
54407;BME280;40313;50.308;30.374;2022-09-03T09:33:29;100204.50;;;27.46;40.20
54407;BME280;40313;50.308;30.374;2022-09-03T09:35:58;100205.41;;;27.38;40.43
54407;BME280;40313;50.308;30.374;2022-09-03T09:38:31;100206.34;;;27.22;38.69
54407;BME280;40313;50.308;30.374;2022-09-03T09:41:08;100204.97;;;27.26;39.31
54407;BME280;40313;50.308;30.374;2022-09-03T09:43:35;100208.31;;;26.90;39.51
54407;BME280;40313;50.308;30.374;2022-09-03T09:46:07;100207.34;;;27.06;40.07
54407;BME280;40313;50.308;30.374;2022-09-03T09:48:37;100207.22;;;27.22;39.93
54407;BME280;40313;50.308;30.374;2022-09-03T09:51:06;100204.56;;;27.37;40.17
54407;BME280;40313;50.308;30.374;2022-09-03T09:53:36;100201.00;;;27.45;40.02
54407;BME280;40313;50.308;30.374;2022-09-03T09:56:04;100205.69;;;27.43;39.59
54407;BME280;40313;50.308;30.374;2022-09-03T09:58:32;100194.75;;;27.30;40.14
54407;BME280;40313;50.308;30.374;2022-09-03T10:01:08;100197.53;;;26.98;39.95
54407;BME280;40313;50.308;30.374;2022-09-03T10:03:39;100206.41;;;26.76;40.09
54407;BME280;40313;50.308;30.374;2022-09-03T10:06:08;100208.34;;;26.59;40.72
54407;BME280;40313;50.308;30.374;2022-09-03T10:09:05;100213.06;;;26.80;40.32
54407;BME280;40313;50.308;30.374;2022-09-03T10:11:33;100211.41;;;26.79;40.96
54407;BME280;40313;50.308;30.374;2022-09-03T10:14:02;100214.22;;;26.85;41.01
54407;BME280;40313;50.308;30.374;2022-09-03T10:16:35;100212.59;;;26.76;40.77
54407;BME280;40313;50.308;30.374;2022-09-03T10:19:08;100215.09;;;26.78;40.03
54407;BME280;40313;50.308;30.374;2022-09-03T10:21:43;100202.25;;;26.65;39.71
54407;BME280;40313;50.308;30.374;2022-09-03T10:27:06;100200.06;;;26.45;40.45
54407;BME280;40313;50.308;30.374;2022-09-03T10:29:34;100203.53;;;26.23;40.49
54407;BME280;40313;50.308;30.374;2022-09-03T10:32:14;100201.78;;;26.38;40.82
54407;BME280;40313;50.308;30.374;2022-09-03T10:34:52;100195.97;;;26.58;40.89
54407;BME280;40313;50.308;30.374;2022-09-03T10:37:31;100206.59;;;26.74;41.18
54407;BME280;40313;50.308;30.374;2022-09-03T10:40:14;100201.88;;;26.76;39.65
54407;BME280;40313;50.308;30.374;2022-09-03T10:42:48;100201.13;;;26.59;40.10
54407;BME280;40313;50.308;30.374;2022-09-03T10:45:30;100198.25;;;26.37;39.71
54407;BME280;40313;50.308;30.374;2022-09-03T10:48:15;100192.81;;;26.54;40.15
54407;BME280;40313;50.308;30.374;2022-09-03T10:50:47;100201.41;;;26.72;40.58
54407;BME280;40313;50.308;30.374;2022-09-03T10:53:29;100209.84;;;26.84;40.24
54407;BME280;40313;50.308;30.374;2022-09-03T10:56:03;100202.59;;;26.70;39.59
54407;BME280;40313;50.308;30.374;2022-09-03T10:58:43;100203.06;;;26.73;39.51
54407;BME280;40313;50.308;30.374;2022-09-03T11:01:19;100207.53;;;26.81;39.67
54407;BME280;40313;50.308;30.374;2022-09-03T11:03:50;100197.91;;;26.95;40.05
54407;BME280;40313;50.308;30.374;2022-09-03T11:06:23;100197.38;;;27.15;39.91
54407;BME280;40313;50.308;30.374;2022-09-03T11:08:55;100194.63;;;27.23;40.64
54407;BME280;40313;50.308;30.374;2022-09-03T11:11:30;100183.50;;;27.49;39.65
54407;BME280;40313;50.308;30.374;2022-09-03T11:14:02;100183.25;;;27.59;39.89
54407;BME280;40313;50.308;30.374;2022-09-03T11:16:39;100182.25;;;27.60;39.46
54407;BME280;40313;50.308;30.374;2022-09-03T11:19:11;100181.13;;;27.39;38.97
54407;BME280;40313;50.308;30.374;2022-09-03T11:21:40;100188.78;;;27.42;39.01
54407;BME280;40313;50.308;30.374;2022-09-03T11:24:12;100186.00;;;27.36;39.43
54407;BME280;40313;50.308;30.374;2022-09-03T11:26:42;100174.28;;;27.37;40.61
54407;BME280;40313;50.308;30.374;2022-09-03T11:29:18;100167.81;;;27.61;40.18
54407;BME280;40313;50.308;30.374;2022-09-03T11:31:54;100174.75;;;27.55;39.26
54407;BME280;40313;50.308;30.374;2022-09-03T11:34:31;100186.22;;;27.26;39.36
54407;BME280;40313;50.308;30.374;2022-09-03T11:37:20;100168.09;;;26.98;39.84
54407;BME280;40313;50.308;30.374;2022-09-03T11:39:55;100164.78;;;26.65;40.17
54407;BME280;40313;50.308;30.374;2022-09-03T11:42:30;100158.50;;;26.58;40.51
54407;BME280;40313;50.308;30.374;2022-09-03T11:45:20;100157.97;;;26.62;41.14
54407;BME280;40313;50.308;30.374;2022-09-03T11:47:48;100142.75;;;26.39;40.54
54407;BME280;40313;50.308;30.374;2022-09-03T11:50:18;100146.19;;;26.48;41.31
54407;BME280;40313;50.308;30.374;2022-09-03T11:52:46;100145.22;;;26.18;40.87
54407;BME280;40313;50.308;30.374;2022-09-03T11:55:24;100150.00;;;25.91;41.66
54407;BME280;40313;50.308;30.374;2022-09-03T11:57:52;100150.91;;;26.15;42.09
54407;BME280;40313;50.308;30.374;2022-09-03T12:00:19;100145.59;;;26.38;41.30
54407;BME280;40313;50.308;30.374;2022-09-03T12:02:53;100135.91;;;26.60;41.24
54407;BME280;40313;50.308;30.374;2022-09-03T12:05:26;100128.97;;;26.51;40.89
54407;BME280;40313;50.308;30.374;2022-09-03T12:08:21;100137.88;;;26.43;41.90
54407;BME280;40313;50.308;30.374;2022-09-03T12:10:55;100134.31;;;26.51;41.59
54407;BME280;40313;50.308;30.374;2022-09-03T12:13:37;100124.00;;;26.71;41.14
54407;BME280;40313;50.308;30.374;2022-09-03T12:16:38;100134.66;;;26.94;39.46
54407;BME280;40313;50.308;30.374;2022-09-03T12:19:12;100137.78;;;26.98;39.72
54407;BME280;40313;50.308;30.374;2022-09-03T12:21:48;100141.56;;;26.88;40.51
54407;BME280;40313;50.308;30.374;2022-09-03T12:24:15;100140.28;;;26.99;40.57
54407;BME280;40313;50.308;30.374;2022-09-03T12:26:42;100138.06;;;26.88;40.50
54407;BME280;40313;50.308;30.374;2022-09-03T12:29:24;100143.94;;;27.06;39.88
54407;BME280;40313;50.308;30.374;2022-09-03T12:31:50;100152.09;;;26.90;40.09
54407;BME280;40313;50.308;30.374;2022-09-03T12:34:21;100142.19;;;27.14;40.15
54407;BME280;40313;50.308;30.374;2022-09-03T12:36:50;100138.94;;;27.18;40.21
54407;BME280;40313;50.308;30.374;2022-09-03T12:39:19;100139.31;;;27.15;39.83
54407;BME280;40313;50.308;30.374;2022-09-03T12:41:54;100134.22;;;27.05;39.86
54407;BME280;40313;50.308;30.374;2022-09-03T12:44:27;100137.97;;;26.96;39.78
54407;BME280;40313;50.308;30.374;2022-09-03T12:47:09;100146.94;;;27.03;40.02
54407;BME280;40313;50.308;30.374;2022-09-03T12:49:38;100130.56;;;26.83;38.95
54407;BME280;40313;50.308;30.374;2022-09-03T12:52:10;100136.56;;;26.62;39.48
54407;BME280;40313;50.308;30.374;2022-09-03T12:54:48;100120.66;;;26.14;39.86
54407;BME280;40313;50.308;30.374;2022-09-03T12:57:21;100119.06;;;25.97;40.00
54407;BME280;40313;50.308;30.374;2022-09-03T12:59:53;100112.44;;;25.84;40.01
54407;BME280;40313;50.308;30.374;2022-09-03T13:02:25;100112.28;;;25.78;40.79
54407;BME280;40313;50.308;30.374;2022-09-03T13:04:53;100114.72;;;25.56;39.82
54407;BME280;40313;50.308;30.374;2022-09-03T13:07:24;100119.34;;;25.70;40.98